• Join FlightAware (Why Join?)
  • Login
  • US Flag 
08:29AM EDT


 

Airport Tracker/Info


-or-


 

Live Flight TrackerFlight Track Log ✈ ASQ5025 ✈ 02-May-2013 ✈ KLGA - KBTV

Flight Track Log - Related Links

Times and Time Zones

All times are in EDT time to prevent confusion due to time zone crossing. See the ASQ5025 flight status page for this flight to view local times or setup timezone preferences in your user account.

Time Position Orientation Groundspeed Altitude Reporting Facility
EDT Latitude Longitude Course Direction KTS MPH feet Rate Location/Type
09:35AM 40.7333 -73.8000 37° Northeast 223 257 5,000  Level New York TRACON
09:36AM 40.7833 -73.7500 37° Northeast 244 281 8,000 2,460 Climbing New York TRACON
09:37AM 40.8500 -73.7167 21° North 299 344 10,000 960 Climbing New York TRACON
09:38AM 40.9333 -73.6500 31° Northeast 346 398 10,000 660 Level New York TRACON
09:39AM 41.0167 -73.6000 24° Northeast 360 414 11,400 1,740 Climbing New York TRACON
09:41AM 41.1783 -73.4992 25° Northeast 388 447 15,000 1,260 Climbing Boston Center
09:42AM 41.2811 -73.4289 27° Northeast 377 434 15,000  Level Boston Center
09:43AM 41.3628 -73.3750 26° Northeast 367 422 15,000  Level Boston Center
09:44AM 41.4592 -73.3125 26° Northeast 348 400 15,000  Level Boston Center
09:45AM 41.5386 -73.2858 14° North 337 388 15,000  Level Boston Center
09:46AM 41.6383 -73.3261 343° North 319 367 15,000  Level Boston Center
09:47AM 41.7214 -73.3608 343° North 336 387 15,000  Level Boston Center
09:48AM 41.8272 -73.4069 342° North 350 403 15,000  Level Boston Center
09:49AM 41.9144 -73.4444 342° North 361 415 15,000  Level Boston Center
09:50AM 42.0203 -73.4908 342° North 367 422 15,000  Level Boston Center
09:51AM 42.1222 -73.5233 347° North 362 417 15,000  Level Boston Center
09:52AM 42.2203 -73.5081 North 348 400 15,000  Level Boston Center
09:53AM 42.3225 -73.4875 North 353 406 15,000  Level Boston Center
09:54AM 42.4208 -73.4639 10° North 359 413 15,000  Level Boston Center
09:55AM 42.5211 -73.4400 10° North 364 419 15,000  Level Boston Center
09:56AM 42.6233 -73.4219 North 364 419 15,000  Level Boston Center
09:57AM 42.7153 -73.4036 North 369 425 15,000  Level Boston Center
09:58AM 42.8258 -73.3800 North 369 425 15,000  Level Boston Center
09:59AM 42.9156 -73.3586 10° North 369 425 15,000  Level Boston Center
10:00AM 43.0261 -73.3433 North 369 425 15,000  Level Boston Center
10:01AM 43.1181 -73.3389 North 369 425 15,000  Level Boston Center
10:02AM 43.2306 -73.3319 North 364 419 15,000  Level Boston Center
10:03AM 43.3222 -73.3247 North 369 425 15,000  Level Boston Center
10:04AM 43.4347 -73.3236 360° North 364 419 15,000  Level Boston Center
10:05AM 43.5369 -73.3194 North 364 419 15,000  Level Boston Center
10:06AM 43.6369 -73.3122 North 364 419 15,000  Level Boston Center
10:07AM 43.7372 -73.3050 North 364 419 15,000  Level Boston Center
10:08AM 43.8372 -73.2864 North 364 419 15,000  Level Boston Center
10:09AM 43.9414 -73.2850 North 370 426 15,000 -720 Level Boston Center
10:10AM 44.0433 -73.3036 353° North 363 418 13,600 -1,320 Descending Boston Center
10:11AM 44.1372 -73.3222 352° North 370 426 12,100 -1,500 Descending Boston Center
10:12AM 44.2494 -73.3386 354° North 362 417 10,400 -1,620 Descending Boston Center
10:13AM 44.3264 -73.3456 356° North 303 349 8,900 -2,340 Descending Boston Center
10:14AM 44.3994 -73.3350 North 271 312 5,800 -3,000 Descending Boston Center
10:15AM 44.4725 -73.3128 12° North 266 306 2,900 -1,740 Descending Boston Center
10:16AM 44.5208 -73.2642 36° Northeast 229 264 2,400 -840 Descending Boston Center
10:17AM 44.5047 -73.2086 112° Southeast 131 151 1,300 6,300 Descending Boston Center
10:18AM 44.4778 -73.1644 131° Southeast 122 140 15,000 6,840 Climbing Boston Center
10:19AM 44.4717 -73.1528 126° Southeast 92 106 15,000  Level Boston Center
10:20AM 44.4675 -73.1556 205° Southwest 54 62 15,000  Level Boston Center
10:21AM 44.4572 -73.1439 141° Southeast 37 43 15,000  Level Boston Center
10:22AM 44.4467 -73.1350 149° Southeast 37 43 15,000  Level Boston Center
10:23AM 44.4364 -73.1292 158° South 37 43 15,000  Level Boston Center